Insider Trading History of Horizon Kinetics Asset Management Llc


The following table details the trading activities (stock purchases, stock sales, and stock option exercises) reported to the Securities and Exchange Commission (SEC) by insider Horizon Kinetics Asset Management Llc since year 2005. The trader's CIK number is 1056823. At the time of the last reporting, Horizon Kinetics Asset Management Llc was the 10% Owner of Texas Pacific Land Trust . (stock ticker symbol TPL). See this page for all insider trading activities at Texas Pacific Land Trust .


Stock purchases, sales, and option exercises reported by insider Horizon Kinetics Asset Management Llc since 2005.
  Trade Date   Symbol Company Name (Issuer) Trade Type     Shares       Price ($)   Value ($)
2019-09-12 TPL Texas Pacific Land Trust Buy 49 663.00 32,487
2019-09-11 TPL Texas Pacific Land Trust Buy 49 655.86 32,137
2019-09-10 TPL Texas Pacific Land Trust Buy 49 659.40 32,310
2019-09-09 TPL Texas Pacific Land Trust Buy 49 686.90 33,658
2019-09-06 TPL Texas Pacific Land Trust Buy 49 697.48 34,176
2019-09-05 TPL Texas Pacific Land Trust Buy 49 706.50 34,618
2019-09-04 TPL Texas Pacific Land Trust Buy 49 670.27 32,843
2019-09-03 TPL Texas Pacific Land Trust Buy 49 653.89 32,040
2019-08-30 TPL Texas Pacific Land Trust Buy 49 654.60 32,075
2019-08-29 TPL Texas Pacific Land Trust Buy 54 656.10 35,429
2019-08-28 TPL Texas Pacific Land Trust Buy 49 641.58 31,437
2019-08-27 TPL Texas Pacific Land Trust Buy 49 637.50 31,237
2019-08-26 TPL Texas Pacific Land Trust Buy 49 636.08 31,167
2019-08-23 TPL Texas Pacific Land Trust Buy 49 668.39 32,751
2019-08-22 TPL Texas Pacific Land Trust Buy 49 674.50 33,050
2019-08-21 TPL Texas Pacific Land Trust Buy 49 669.37 32,799
2019-08-20 TPL Texas Pacific Land Trust Buy 49 666.50 32,658
2019-08-19 TPL Texas Pacific Land Trust Buy 49 679.36 33,288
2019-08-16 TPL Texas Pacific Land Trust Buy 49 671.46 32,901
2019-08-15 TPL Texas Pacific Land Trust Buy 49 649.73 31,836
2019-08-14 TPL Texas Pacific Land Trust Buy 188 641.00 120,508
2019-08-13 TPL Texas Pacific Land Trust Buy 49 688.78 33,750
2019-08-12 TPL Texas Pacific Land Trust Buy 49 679.65 33,302
2019-08-09 TPL Texas Pacific Land Trust Buy 49 673.70 33,011
2019-08-08 TPL Texas Pacific Land Trust Buy 49 674.39 33,045
2019-08-07 TPL Texas Pacific Land Trust Buy 49 659.12 32,296
2019-08-06 TPL Texas Pacific Land Trust Buy 49 681.00 33,369
2019-08-05 TPL Texas Pacific Land Trust Buy 49 689.76 33,798
2019-08-02 TPL Texas Pacific Land Trust Buy 49 720.23 35,291
2019-08-01 TPL Texas Pacific Land Trust Buy 49 759.85 37,232
2019-07-31 TPL Texas Pacific Land Trust Buy 49 800.00 39,200
2019-07-30 TPL Texas Pacific Land Trust Buy 49 755.49 37,019
2019-07-29 TPL Texas Pacific Land Trust Buy 49 740.50 36,284
2019-07-26 TPL Texas Pacific Land Trust Buy 49 749.50 36,725
2019-07-25 TPL Texas Pacific Land Trust Buy 49 744.49 36,480
2019-07-24 TPL Texas Pacific Land Trust Buy 49 753.12 36,902
2019-07-23 TPL Texas Pacific Land Trust Buy 49 749.44 36,722
2019-07-22 TPL Texas Pacific Land Trust Buy 49 768.84 37,673
2019-07-19 TPL Texas Pacific Land Trust Buy 49 764.50 37,460
2019-07-18 TPL Texas Pacific Land Trust Buy 49 759.50 37,215
2019-07-17 TPL Texas Pacific Land Trust Buy 157 769.49 120,809
2019-07-16 TPL Texas Pacific Land Trust Buy 49 779.61 38,200
2019-07-15 TPL Texas Pacific Land Trust Buy 49 795.00 38,955
2019-07-12 TPL Texas Pacific Land Trust Buy 49 798.15 39,109
2019-07-11 TPL Texas Pacific Land Trust Buy 49 808.89 39,635
2019-07-10 TPL Texas Pacific Land Trust Buy 50 797.58 39,879
2019-07-09 TPL Texas Pacific Land Trust Buy 50 789.73 39,486
2019-07-08 TPL Texas Pacific Land Trust Buy 50 810.20 40,510
2019-07-05 TPL Texas Pacific Land Trust Buy 50 798.67 39,933
2019-07-03 TPL Texas Pacific Land Trust Buy 50 793.74 39,687
2019-07-02 TPL Texas Pacific Land Trust Buy 50 811.04 40,552
2019-07-01 TPL Texas Pacific Land Trust Buy 50 799.99 39,999
2019-06-28 TPL Texas Pacific Land Trust Buy 50 795.24 39,762
2019-06-27 TPL Texas Pacific Land Trust Buy 50 785.98 39,299
2019-06-26 TPL Texas Pacific Land Trust Buy 50 817.18 40,859
2019-06-25 TPL Texas Pacific Land Trust Buy 50 787.20 39,360
2019-06-24 TPL Texas Pacific Land Trust Buy 50 782.12 39,106
2019-06-21 TPL Texas Pacific Land Trust Buy 50 791.07 39,553
2019-06-20 TPL Texas Pacific Land Trust Buy 50 796.72 39,836
2019-06-19 TPL Texas Pacific Land Trust Buy 50 755.88 37,794
2019-06-18 TPL Texas Pacific Land Trust Buy 50 735.09 36,754
2019-06-17 TPL Texas Pacific Land Trust Buy 50 718.96 35,948
2019-06-14 TPL Texas Pacific Land Trust Buy 50 739.99 36,999
2019-06-13 TPL Texas Pacific Land Trust Buy 50 726.13 36,306
2019-06-12 TPL Texas Pacific Land Trust Buy 50 744.22 37,211
2019-06-11 TPL Texas Pacific Land Trust Buy 50 771.11 38,555
2019-06-10 TPL Texas Pacific Land Trust Buy 50 764.77 38,238
2019-06-07 TPL Texas Pacific Land Trust Buy 50 749.91 37,495
2019-06-06 TPL Texas Pacific Land Trust Buy 175 740.80 129,639
2019-06-05 TPL Texas Pacific Land Trust Buy 50 730.07 36,503
2019-06-04 TPL Texas Pacific Land Trust Buy 50 732.78 36,639
2019-06-03 TPL Texas Pacific Land Trust Buy 50 738.78 36,939
2019-05-31 TPL Texas Pacific Land Trust Buy 50 752.07 37,603
2019-05-30 TPL Texas Pacific Land Trust Buy 50 799.00 39,950
2019-05-29 TPL Texas Pacific Land Trust Buy 50 813.21 40,660
2019-05-28 TPL Texas Pacific Land Trust Buy 50 790.32 39,516
2019-05-24 TPL Texas Pacific Land Trust Buy 50 790.09 39,504
2019-05-23 TPL Texas Pacific Land Trust Buy 36 792.09 28,515
2019-05-22 TPL Texas Pacific Land Trust Buy 36 831.23 29,924
2019-05-21 TPL Texas Pacific Land Trust Buy 36 849.48 30,581
2019-05-20 TPL Texas Pacific Land Trust Buy 36 860.09 30,963
2019-05-17 TPL Texas Pacific Land Trust Buy 36 845.42 30,435
2019-05-16 TPL Texas Pacific Land Trust Buy 36 842.57 30,332
2019-05-15 TPL Texas Pacific Land Trust Buy 36 837.84 30,162
2019-05-14 TPL Texas Pacific Land Trust Buy 36 805.73 29,006
2019-05-13 TPL Texas Pacific Land Trust Buy 36 787.20 28,339
2019-05-10 TPL Texas Pacific Land Trust Buy 36 780.78 28,108
2019-05-09 TPL Texas Pacific Land Trust Buy 36 779.99 28,079
2019-05-08 TPL Texas Pacific Land Trust Buy 36 799.98 28,799
2019-05-07 TPL Texas Pacific Land Trust Buy 36 781.21 28,123
2019-05-06 TPL Texas Pacific Land Trust Buy 36 807.23 29,060

Insider trading activities including stock purchases, stock sales, and option exercises listed in the above table cannot be completely guaranteed as to their accuracy. For more information regarding the trades made by Horizon Kinetics Asset Management Llc (10% Owner of Texas Pacific Land Trust at the time of this reporting) see the Securities and Exchange Commission (SEC) website.




Real-time Insider Trading

Insider Officer Cluster Trading

Top Officer Buys of the Week

Top Officer Buys of the Month